Bettendorf, IA

7:01 PM CST on February 27, 2015 (GMT -0600)
HADS MISSISSIPPI RIVER AT LOCK & DAM IA US USARMY-COE | Change Station
CLOSE
Current Station
Personal Weather Station
Location: Pleasant Valley, IA
Elevation: 557 ft
Nearby Weather Stations

Elev 557 ft 41.58 °N, 90.40 °W | Updated 1 hour ago

Clear
Clear
7 °F
Feels Like 7 °F
N
2
Wind Variable Wind from NNW
Gusts 4.0 mph

Today
High -- | Low -- °F
--% Chance of Precip.
Yesterday
High -- | Low -- °F
Precip. -- in
6:39 AM 5:49 PM
Waxing Gibbous, 73% visible
Pressure 30.71 in
Visibility 10.0 miles
Clouds Clear
Windchill 7 °F
Dew Point Not available.
Humidity Not available.
Rainfall 0.00 in
Snow Depth Not available.
UV 0 out of 12
Pollen .50 out of 12
Air Quality Not available.
Flu Activity Not available.
METAR KDVN 280052Z AUTO 00000KT 10SM CLR M18/M23 A3063 RMK AO2 SLP398 T11781228

More Conditions Fewer Conditions

Pressure 30.71 in
Visibility 10.0 miles
Clouds Clear
Windchill 7 °F
Dew Point Not available.
Humidity Not available.
Rainfall 0.00 in
Snow Depth Not available.
UV 0 out of 12
Pollen .50 out of 12
Air Quality Not available.
Flu Activity Not available.
METAR KDVN 280052Z AUTO 00000KT 10SM CLR M18/M23 A3063 RMK AO2 SLP398 T11781228

More Conditions Fewer Conditions

10-Day Weather Forecast

Almanac

Astronomy

Feb. 27, 2015 Rise Set
Actual Time
Civil Twilight
Nautical Twilight
Astronomical Twilight
Moon
Length of Visible Light
Length of Day
Tomorrow will be .
, % of the Moon is Illuminated

Today's Extremes

State Highs State Lows

Community

WunderPhotos

Upload Photos

1,800,911 photos uploaded!

WunderBlogs® & News

Nearby

Air Quality

  Air Quality AQ Index Pollutant
Not available.

Snow Depth

Station Depth Elevation

Earthquake Activity

City Distance Mag. Time & Date
Minimum magnitude displayed is 2.5.

Coastal Water Temperatures

Place Temperature

Nearby Weather Stations

Wind Chill Advisory
Statement as of 3:00 PM CST on February 27, 2015

... Wind Chill Advisory in effect from 3 am to 9 am CST Saturday...

The National Weather Service in Quad Cities has issued a Wind
Chill Advisory... which is in effect from 3 am to 9 am CST
Saturday.

* Timing... from 3 am to 9 am Saturday.

* Wind chill readings... 20 to 30 below zero.

* Temperatures... 3 below to 12 below zero.

* Winds... southeast 5 mph or less.

* Impacts... frost bite will occur in a matter of minutes on
exposed skin. Extended exposure without proper clothing will
increase the risk of hypothermia.

Precautionary/preparedness actions...

A Wind Chill Advisory means that very cold air and strong winds
will combine to generate low wind chills... resulting in frost
bite and hypothermia if precautions are not taken. If you must
venture outdoors... dress in layers covering exposed skin.
Frostbite will occur in as few as 30 minutes in these
conditions.